Aérodrome :
LOGIN :

S'inscrire | Disclaimer

   EN    FR    IT 

 










Légende :    VFR   VFR Marginal   IFR   IFR Intensif   IFR Très Intensif
Visi : 
Plafond : 
>= 8 km
>= 3000ft
5 à 8 km
1000 à 3000 ft
1500m à 5 km
500 à 1000 ft
800 à 1500m
200 à 500 ft
< 800m
< 200 ft
Symboles :   Orages  Brouillard  Fortes neiges  Fortes précipitations  Vent > 20 kt
SIGMETs :   Divers  Orages  Givrage  Turbulence  Onde Orograph.  Cendres Volcan.






- Altitude de l'aérodrome : 32 ft
- Code IATA : NRK


ESSP - Norrköping

DERNIER METAR :
  • 091420Z 30012KT CAVOK 10/M08 Q1017

METARs EXPIRÉS :
  • 091350Z 31012KT CAVOK 10/M07 Q1017
  • 091320Z 31015KT CAVOK 11/M07 Q1017
  • 091250Z 32011KT 280V340 CAVOK 11/M08 Q1017
  • 091220Z 35011KT CAVOK 10/M07 Q1017
  • 091150Z 33013KT CAVOK 11/M07 Q1016

TAF TAF ESSP
Valide du 09 à 12h jusqu'au 09 à 17h UTC


091130Z 0912/0917 34012G23KT CAVOK



MET'MAP, la Météo Aéronautique d'un coup d'oeil ! - Copyright ORBIFLY Décembre 2007 - Disclaimer

ORBIFLY MET'MAP TEAM :

Programmation & Développement : Alexandra Zaïnal
Sur une idée originale de : Baudouin d'Aumeries
Assistance à la programmation : Marc-Olivier Méhu
Soutien technique & logistique : Manuel Goepfert

Contact : metmap@orbifly.com




SOURCES & CREDITS :

   NOAA